Aeroporto :
LOGIN :

Iscrizione | Disclaimer

   EN    FR    IT 

 










Sommario :    VFR   VFR Marginale   IFR   IFR Intensivo   IFR Molto Intensivo
Visibilità : 
Base nubi : 
>= 8 km
>= 3000ft
5 / 8 km
1000 / 3000 ft
1500m / 5 km
500 / 1000 ft
800 / 1500m
200 / 500 ft
< 800m
< 200 ft
Simboli :   Temporali  Nebbia  Neve Forte  Precipitazioni Forti  Vento > 20 kt
SIGMETs :   Varie  Temporali  Ghiacco  Turbolenza  Onda orograficha  Ceneri Vulcaniche






- Altitudine del aeroporto : 1260 ft
- Codice IATA : LDE


LFBT - Tarbes / Ossun

ULTIMO METAR :
  • 120530Z AUTO 21005KT 9999 FEW034 BKN080 05/04 Q1015 TEMPO 28015G25KT 4000 SHRA BKN009 BKN015TCU

METARs OBSOLETI :
  • 120500Z AUTO 21007KT 9999 FEW025/// SCT044/// BKN050/// ///TCU 06/05 Q1015 TEMPO 28015G25KT 4000 SHRA BKN009 BKN015TCU
  • 120430Z AUTO 21005KT 9999 -RA FEW028/// BKN040/// BKN050/// ///TCU 06/05 Q1015 TEMPO 28015G25KT 4000 SHRA BKN009 BKN015TCU
  • 120400Z AUTO 19010KT 9999 FEW031/// SCT045/// OVC052/// ///TCU 06/05 Q1015 TEMPO 28015G25KT 4000 SHRA BKN009 BKN015TCU
  • 120330Z AUTO 19008KT 9999 OVC045 06/05 Q1015 TEMPO 28015G25KT 4000 SHRA BKN009 BKN015TCU
  • 120300Z AUTO 23007KT 9999 BKN031/// BKN039/// BKN047/// ///TCU 06/05 Q1015 TEMPO 28015G25KT 4000 SHRA BKN009 BKN015TCU

TAF TAF LFBT
Valido dal 12 a 06 ore il 13 a 06 ore UTC


120500Z 1206/1306 24010KT 9999 BKN025
PROB40
TEMPO 1206/1221 4000 SHRA BKN008 BKN015TCU
BECMG 1300/1302 VRB03KT BKN014
PROB30
TEMPO 1300/1306 4000 -RA



MetMap, La meteo Aeronautica in un colpo d'occhio ! - Copyright ORBIFLY Dicembre 2007 - Disclaimer

ORBIFLY MET'MAP TEAM :

Programmazione e sviluppo : Alexandra Zaïnal
Concezione e sviluppo : Baudouin d'Aumeries
Co-Programmazione e sviluppo : Marc-Olivier Méhu
Supporto tecnico e logistico : Manuel Goepfert
Aiuto per la traduzione : Arnaldo La Scala

Contatto : metmap@orbifly.com




FONTI E CREDITI :

   NOAA